sensor_id;sensor_type;location;lat;lon;timestamp;P1;durP1;ratioP1;P2;durP2;ratioP2
63093;SDS011;49183;51.380;0.098;2022-07-29T00:01:55;5.10;;;2.13;;
63093;SDS011;49183;51.380;0.098;2022-07-29T00:04:56;6.63;;;1.98;;
63093;SDS011;49183;51.380;0.098;2022-07-29T00:07:57;6.00;;;1.92;;
63093;SDS011;49183;51.380;0.098;2022-07-29T00:10:58;5.45;;;1.80;;
63093;SDS011;49183;51.380;0.098;2022-07-29T00:13:59;4.28;;;1.77;;
63093;SDS011;49183;51.380;0.098;2022-07-29T00:17:00;12.32;;;2.00;;
63093;SDS011;49183;51.380;0.098;2022-07-29T00:20:05;4.25;;;1.55;;
63093;SDS011;49183;51.380;0.098;2022-07-29T00:23:07;4.25;;;1.55;;
63093;SDS011;49183;51.380;0.098;2022-07-29T00:26:08;4.63;;;2.13;;
63093;SDS011;49183;51.380;0.098;2022-07-29T00:29:09;6.10;;;1.73;;
63093;SDS011;49183;51.380;0.098;2022-07-29T00:32:20;6.20;;;1.92;;
63093;SDS011;49183;51.380;0.098;2022-07-29T00:35:21;3.40;;;1.88;;
63093;SDS011;49183;51.380;0.098;2022-07-29T00:38:38;3.88;;;1.45;;
63093;SDS011;49183;51.380;0.098;2022-07-29T00:41:39;8.93;;;2.22;;
63093;SDS011;49183;51.380;0.098;2022-07-29T00:44:40;6.13;;;1.48;;
63093;SDS011;49183;51.380;0.098;2022-07-29T00:47:42;5.95;;;1.90;;
63093;SDS011;49183;51.380;0.098;2022-07-29T00:50:43;10.43;;;1.73;;
63093;SDS011;49183;51.380;0.098;2022-07-29T00:53:44;8.55;;;2.08;;
63093;SDS011;49183;51.380;0.098;2022-07-29T00:56:45;4.45;;;1.60;;
63093;SDS011;49183;51.380;0.098;2022-07-29T00:59:46;5.85;;;1.60;;
63093;SDS011;49183;51.380;0.098;2022-07-29T01:02:47;5.50;;;1.50;;
63093;SDS011;49183;51.380;0.098;2022-07-29T01:05:50;7.93;;;1.83;;
63093;SDS011;49183;51.380;0.098;2022-07-29T01:08:51;4.15;;;1.60;;
63093;SDS011;49183;51.380;0.098;2022-07-29T01:11:52;6.70;;;1.77;;
63093;SDS011;49183;51.380;0.098;2022-07-29T01:14:54;5.80;;;1.50;;
63093;SDS011;49183;51.380;0.098;2022-07-29T01:21:46;2.90;;;1.65;;
63093;SDS011;49183;51.380;0.098;2022-07-29T01:35:35;6.63;;;1.25;;
63093;SDS011;49183;51.380;0.098;2022-07-29T01:38:41;4.15;;;1.30;;
63093;SDS011;49183;51.380;0.098;2022-07-29T01:45:36;3.85;;;1.45;;
63093;SDS011;49183;51.380;0.098;2022-07-29T01:48:48;3.38;;;1.52;;
63093;SDS011;49183;51.380;0.098;2022-07-29T01:52:04;2.78;;;1.10;;
63093;SDS011;49183;51.380;0.098;2022-07-29T01:55:09;4.57;;;1.52;;
63093;SDS011;49183;51.380;0.098;2022-07-29T01:58:17;3.83;;;1.40;;
63093;SDS011;49183;51.380;0.098;2022-07-29T02:01:19;6.40;;;1.30;;
63093;SDS011;49183;51.380;0.098;2022-07-29T02:04:22;5.10;;;1.27;;
63093;SDS011;49183;51.380;0.098;2022-07-29T02:07:25;4.22;;;1.58;;
63093;SDS011;49183;51.380;0.098;2022-07-29T02:10:30;6.70;;;1.23;;
63093;SDS011;49183;51.380;0.098;2022-07-29T02:13:34;4.95;;;1.10;;
63093;SDS011;49183;51.380;0.098;2022-07-29T02:16:37;3.60;;;1.55;;
63093;SDS011;49183;51.380;0.098;2022-07-29T02:19:40;6.00;;;1.33;;
63093;SDS011;49183;51.380;0.098;2022-07-29T02:22:43;5.85;;;1.17;;
63093;SDS011;49183;51.380;0.098;2022-07-29T02:25:50;2.72;;;1.15;;
63093;SDS011;49183;51.380;0.098;2022-07-29T02:28:53;2.30;;;1.20;;
63093;SDS011;49183;51.380;0.098;2022-07-29T02:31:56;2.83;;;1.05;;
63093;SDS011;49183;51.380;0.098;2022-07-29T02:34:59;4.32;;;1.20;;
63093;SDS011;49183;51.380;0.098;2022-07-29T02:38:02;4.00;;;1.15;;
63093;SDS011;49183;51.380;0.098;2022-07-29T02:44:42;2.88;;;1.00;;
63093;SDS011;49183;51.380;0.098;2022-07-29T02:47:43;2.75;;;0.77;;
63093;SDS011;49183;51.380;0.098;2022-07-29T02:50:51;4.22;;;1.45;;
63093;SDS011;49183;51.380;0.098;2022-07-29T02:54:24;3.08;;;0.95;;
63093;SDS011;49183;51.380;0.098;2022-07-29T02:57:43;5.10;;;0.90;;
63093;SDS011;49183;51.380;0.098;2022-07-29T03:00:50;3.22;;;1.15;;
63093;SDS011;49183;51.380;0.098;2022-07-29T03:03:53;7.55;;;1.55;;
63093;SDS011;49183;51.380;0.098;2022-07-29T03:06:55;5.28;;;1.30;;
63093;SDS011;49183;51.380;0.098;2022-07-29T03:09:59;2.95;;;0.95;;
63093;SDS011;49183;51.380;0.098;2022-07-29T03:13:02;2.20;;;1.20;;
63093;SDS011;49183;51.380;0.098;2022-07-29T03:16:06;3.08;;;1.10;;
63093;SDS011;49183;51.380;0.098;2022-07-29T03:19:08;2.25;;;0.90;;
63093;SDS011;49183;51.380;0.098;2022-07-29T03:22:09;6.20;;;1.00;;
63093;SDS011;49183;51.380;0.098;2022-07-29T03:25:10;2.35;;;1.15;;
63093;SDS011;49183;51.380;0.098;2022-07-29T03:28:12;3.08;;;0.90;;
63093;SDS011;49183;51.380;0.098;2022-07-29T03:31:13;2.35;;;0.98;;
63093;SDS011;49183;51.380;0.098;2022-07-29T03:34:14;4.03;;;1.05;;
63093;SDS011;49183;51.380;0.098;2022-07-29T03:37:15;3.13;;;1.23;;
63093;SDS011;49183;51.380;0.098;2022-07-29T03:40:38;6.70;;;1.98;;
63093;SDS011;49183;51.380;0.098;2022-07-29T03:43:42;2.05;;;1.05;;
63093;SDS011;49183;51.380;0.098;2022-07-29T03:46:37;2.95;;;1.33;;
63093;SDS011;49183;51.380;0.098;2022-07-29T03:49:40;4.45;;;1.42;;
63093;SDS011;49183;51.380;0.098;2022-07-29T03:52:42;4.57;;;1.30;;
63093;SDS011;49183;51.380;0.098;2022-07-29T03:55:44;4.80;;;1.27;;
63093;SDS011;49183;51.380;0.098;2022-07-29T03:58:48;3.00;;;1.77;;
63093;SDS011;49183;51.380;0.098;2022-07-29T04:01:52;6.43;;;1.30;;
63093;SDS011;49183;51.380;0.098;2022-07-29T04:04:55;2.17;;;1.55;;
63093;SDS011;49183;51.380;0.098;2022-07-29T04:07:56;2.40;;;1.33;;
63093;SDS011;49183;51.380;0.098;2022-07-29T04:10:57;4.13;;;1.90;;
63093;SDS011;49183;51.380;0.098;2022-07-29T04:13:58;4.13;;;1.60;;
63093;SDS011;49183;51.380;0.098;2022-07-29T04:16:59;3.90;;;1.88;;
63093;SDS011;49183;51.380;0.098;2022-07-29T04:20:01;2.80;;;1.52;;
63093;SDS011;49183;51.380;0.098;2022-07-29T04:23:02;2.85;;;1.70;;
63093;SDS011;49183;51.380;0.098;2022-07-29T04:26:03;5.82;;;1.60;;
63093;SDS011;49183;51.380;0.098;2022-07-29T04:29:04;5.28;;;1.90;;
63093;SDS011;49183;51.380;0.098;2022-07-29T04:32:05;4.68;;;1.90;;
63093;SDS011;49183;51.380;0.098;2022-07-29T04:35:06;4.78;;;2.08;;
63093;SDS011;49183;51.380;0.098;2022-07-29T04:38:07;4.95;;;1.83;;
63093;SDS011;49183;51.380;0.098;2022-07-29T04:41:08;4.45;;;1.58;;
63093;SDS011;49183;51.380;0.098;2022-07-29T04:44:18;7.57;;;1.80;;
63093;SDS011;49183;51.380;0.098;2022-07-29T04:47:25;3.33;;;1.73;;
63093;SDS011;49183;51.380;0.098;2022-07-29T04:50:26;5.95;;;2.20;;
63093;SDS011;49183;51.380;0.098;2022-07-29T04:53:20;3.47;;;1.60;;
63093;SDS011;49183;51.380;0.098;2022-07-29T04:56:21;2.88;;;2.40;;
63093;SDS011;49183;51.380;0.098;2022-07-29T04:59:22;6.85;;;1.95;;
63093;SDS011;49183;51.380;0.098;2022-07-29T05:02:23;5.43;;;2.47;;
63093;SDS011;49183;51.380;0.098;2022-07-29T05:05:24;6.78;;;2.22;;
63093;SDS011;49183;51.380;0.098;2022-07-29T05:08:25;6.05;;;2.30;;
63093;SDS011;49183;51.380;0.098;2022-07-29T05:11:27;5.40;;;1.80;;
63093;SDS011;49183;51.380;0.098;2022-07-29T05:14:21;4.22;;;1.77;;
63093;SDS011;49183;51.380;0.098;2022-07-29T05:17:22;4.60;;;1.75;;
63093;SDS011;49183;51.380;0.098;2022-07-29T05:20:23;3.30;;;1.77;;
63093;SDS011;49183;51.380;0.098;2022-07-29T05:23:24;5.70;;;1.90;;
63093;SDS011;49183;51.380;0.098;2022-07-29T05:26:25;3.30;;;1.75;;
63093;SDS011;49183;51.380;0.098;2022-07-29T05:29:26;4.40;;;2.55;;
63093;SDS011;49183;51.380;0.098;2022-07-29T05:32:31;6.95;;;2.42;;
63093;SDS011;49183;51.380;0.098;2022-07-29T05:35:32;5.40;;;2.03;;
63093;SDS011;49183;51.380;0.098;2022-07-29T05:38:33;2.95;;;1.92;;
63093;SDS011;49183;51.380;0.098;2022-07-29T05:41:35;3.38;;;2.03;;
63093;SDS011;49183;51.380;0.098;2022-07-29T05:44:37;5.50;;;2.08;;
63093;SDS011;49183;51.380;0.098;2022-07-29T05:47:39;5.22;;;2.30;;
63093;SDS011;49183;51.380;0.098;2022-07-29T05:50:40;9.27;;;2.42;;
63093;SDS011;49183;51.380;0.098;2022-07-29T05:53:41;11.20;;;1.98;;
63093;SDS011;49183;51.380;0.098;2022-07-29T05:56:42;7.90;;;2.10;;
63093;SDS011;49183;51.380;0.098;2022-07-29T05:59:43;7.95;;;2.22;;
63093;SDS011;49183;51.380;0.098;2022-07-29T06:02:51;2.38;;;1.30;;
63093;SDS011;49183;51.380;0.098;2022-07-29T06:05:52;9.57;;;2.50;;
63093;SDS011;49183;51.380;0.098;2022-07-29T06:08:53;6.50;;;2.05;;
63093;SDS011;49183;51.380;0.098;2022-07-29T06:11:58;2.75;;;1.98;;
63093;SDS011;49183;51.380;0.098;2022-07-29T06:14:59;5.57;;;2.83;;
63093;SDS011;49183;51.380;0.098;2022-07-29T06:18:00;4.95;;;1.98;;
63093;SDS011;49183;51.380;0.098;2022-07-29T06:21:06;3.13;;;2.80;;
63093;SDS011;49183;51.380;0.098;2022-07-29T06:24:08;6.15;;;2.00;;
63093;SDS011;49183;51.380;0.098;2022-07-29T06:27:10;5.47;;;2.60;;
63093;SDS011;49183;51.380;0.098;2022-07-29T06:30:12;3.45;;;1.95;;
63093;SDS011;49183;51.380;0.098;2022-07-29T06:33:17;4.22;;;2.13;;
63093;SDS011;49183;51.380;0.098;2022-07-29T06:36:19;5.78;;;2.95;;
63093;SDS011;49183;51.380;0.098;2022-07-29T06:39:21;5.68;;;2.28;;
63093;SDS011;49183;51.380;0.098;2022-07-29T06:42:22;5.30;;;2.30;;
63093;SDS011;49183;51.380;0.098;2022-07-29T06:45:23;5.88;;;3.35;;
63093;SDS011;49183;51.380;0.098;2022-07-29T06:48:24;4.97;;;2.22;;
63093;SDS011;49183;51.380;0.098;2022-07-29T06:51:25;5.55;;;1.98;;
63093;SDS011;49183;51.380;0.098;2022-07-29T06:54:26;6.85;;;2.20;;
63093;SDS011;49183;51.380;0.098;2022-07-29T06:57:27;4.00;;;1.88;;
63093;SDS011;49183;51.380;0.098;2022-07-29T07:00:28;6.50;;;2.03;;
63093;SDS011;49183;51.380;0.098;2022-07-29T07:03:29;4.53;;;2.53;;
63093;SDS011;49183;51.380;0.098;2022-07-29T07:06:31;4.13;;;1.75;;
63093;SDS011;49183;51.380;0.098;2022-07-29T07:09:33;5.72;;;2.25;;
63093;SDS011;49183;51.380;0.098;2022-07-29T07:12:34;4.93;;;2.40;;
63093;SDS011;49183;51.380;0.098;2022-07-29T07:15:35;5.95;;;2.38;;
63093;SDS011;49183;51.380;0.098;2022-07-29T07:18:37;4.70;;;2.17;;
63093;SDS011;49183;51.380;0.098;2022-07-29T07:21:38;6.90;;;1.92;;
63093;SDS011;49183;51.380;0.098;2022-07-29T07:24:32;4.45;;;1.90;;
63093;SDS011;49183;51.380;0.098;2022-07-29T07:27:33;6.03;;;2.05;;
63093;SDS011;49183;51.380;0.098;2022-07-29T07:30:34;6.97;;;2.90;;
63093;SDS011;49183;51.380;0.098;2022-07-29T07:33:35;5.13;;;1.90;;
63093;SDS011;49183;51.380;0.098;2022-07-29T07:36:36;4.55;;;2.25;;
63093;SDS011;49183;51.380;0.098;2022-07-29T07:39:37;3.65;;;1.80;;
63093;SDS011;49183;51.380;0.098;2022-07-29T07:42:39;6.03;;;1.92;;
63093;SDS011;49183;51.380;0.098;2022-07-29T07:45:41;6.18;;;2.22;;
63093;SDS011;49183;51.380;0.098;2022-07-29T07:48:42;5.97;;;2.40;;
63093;SDS011;49183;51.380;0.098;2022-07-29T07:51:43;6.35;;;2.13;;
63093;SDS011;49183;51.380;0.098;2022-07-29T07:54:44;3.50;;;2.28;;
63093;SDS011;49183;51.380;0.098;2022-07-29T07:57:45;6.15;;;2.35;;
63093;SDS011;49183;51.380;0.098;2022-07-29T08:00:46;4.22;;;2.45;;
63093;SDS011;49183;51.380;0.098;2022-07-29T08:03:47;5.97;;;2.53;;
63093;SDS011;49183;51.380;0.098;2022-07-29T08:06:49;3.38;;;1.98;;
63093;SDS011;49183;51.380;0.098;2022-07-29T08:09:50;4.95;;;1.88;;
63093;SDS011;49183;51.380;0.098;2022-07-29T08:12:51;4.30;;;1.75;;
63093;SDS011;49183;51.380;0.098;2022-07-29T08:15:52;6.38;;;2.58;;
63093;SDS011;49183;51.380;0.098;2022-07-29T08:18:54;5.72;;;2.30;;
63093;SDS011;49183;51.380;0.098;2022-07-29T08:21:55;2.22;;;1.77;;
63093;SDS011;49183;51.380;0.098;2022-07-29T08:24:56;8.27;;;1.75;;
63093;SDS011;49183;51.380;0.098;2022-07-29T08:27:57;4.43;;;1.90;;
63093;SDS011;49183;51.380;0.098;2022-07-29T08:30:59;7.15;;;2.20;;
63093;SDS011;49183;51.380;0.098;2022-07-29T08:34:00;6.50;;;2.25;;
63093;SDS011;49183;51.380;0.098;2022-07-29T08:36:55;3.55;;;2.38;;
63093;SDS011;49183;51.380;0.098;2022-07-29T08:39:56;3.22;;;1.80;;
63093;SDS011;49183;51.380;0.098;2022-07-29T08:42:57;3.95;;;1.90;;
63093;SDS011;49183;51.380;0.098;2022-07-29T08:45:59;4.28;;;2.25;;
63093;SDS011;49183;51.380;0.098;2022-07-29T08:49:01;4.13;;;1.85;;
63093;SDS011;49183;51.380;0.098;2022-07-29T08:52:02;4.57;;;2.10;;
63093;SDS011;49183;51.380;0.098;2022-07-29T08:55:04;4.15;;;1.80;;
63093;SDS011;49183;51.380;0.098;2022-07-29T08:58:07;4.75;;;2.22;;
63093;SDS011;49183;51.380;0.098;2022-07-29T09:01:12;3.30;;;1.70;;
63093;SDS011;49183;51.380;0.098;2022-07-29T09:04:22;5.32;;;3.47;;
63093;SDS011;49183;51.380;0.098;2022-07-29T09:07:27;3.70;;;1.98;;
63093;SDS011;49183;51.380;0.098;2022-07-29T09:10:28;4.30;;;2.38;;
63093;SDS011;49183;51.380;0.098;2022-07-29T09:13:31;3.88;;;2.03;;
63093;SDS011;49183;51.380;0.098;2022-07-29T09:16:45;6.40;;;2.38;;
63093;SDS011;49183;51.380;0.098;2022-07-29T09:19:51;5.28;;;1.90;;
63093;SDS011;49183;51.380;0.098;2022-07-29T09:22:52;5.80;;;1.92;;
63093;SDS011;49183;51.380;0.098;2022-07-29T09:25:53;8.70;;;3.60;;
63093;SDS011;49183;51.380;0.098;2022-07-29T09:28:54;4.38;;;2.35;;
63093;SDS011;49183;51.380;0.098;2022-07-29T09:31:55;8.75;;;2.58;;
63093;SDS011;49183;51.380;0.098;2022-07-29T09:35:15;5.90;;;2.22;;
63093;SDS011;49183;51.380;0.098;2022-07-29T09:38:20;4.60;;;1.88;;
63093;SDS011;49183;51.380;0.098;2022-07-29T09:41:22;3.80;;;1.77;;
63093;SDS011;49183;51.380;0.098;2022-07-29T09:44:23;3.13;;;1.70;;
63093;SDS011;49183;51.380;0.098;2022-07-29T09:47:25;4.13;;;1.88;;
63093;SDS011;49183;51.380;0.098;2022-07-29T09:50:50;6.88;;;2.30;;
63093;SDS011;49183;51.380;0.098;2022-07-29T09:53:53;4.30;;;1.65;;
63093;SDS011;49183;51.380;0.098;2022-07-29T09:56:57;5.80;;;2.38;;
63093;SDS011;49183;51.380;0.098;2022-07-29T09:59:59;8.23;;;2.80;;
63093;SDS011;49183;51.380;0.098;2022-07-29T10:03:05;5.60;;;1.87;;
63093;SDS011;49183;51.380;0.098;2022-07-29T10:06:10;4.25;;;1.73;;
63093;SDS011;49183;51.380;0.098;2022-07-29T10:09:11;5.63;;;1.90;;
63093;SDS011;49183;51.380;0.098;2022-07-29T10:12:12;4.63;;;1.80;;
63093;SDS011;49183;51.380;0.098;2022-07-29T10:15:13;5.75;;;2.70;;
63093;SDS011;49183;51.380;0.098;2022-07-29T10:18:15;5.72;;;2.72;;
63093;SDS011;49183;51.380;0.098;2022-07-29T10:21:10;3.47;;;1.90;;
63093;SDS011;49183;51.380;0.098;2022-07-29T10:24:22;7.63;;;2.00;;
63093;SDS011;49183;51.380;0.098;2022-07-29T10:27:26;3.63;;;2.20;;
63093;SDS011;49183;51.380;0.098;2022-07-29T10:30:27;4.55;;;2.00;;
63093;SDS011;49183;51.380;0.098;2022-07-29T10:33:38;4.95;;;2.22;;
63093;SDS011;49183;51.380;0.098;2022-07-29T10:36:56;6.28;;;1.90;;
63093;SDS011;49183;51.380;0.098;2022-07-29T10:40:40;8.30;;;2.67;;
63093;SDS011;49183;51.380;0.098;2022-07-29T10:44:19;4.55;;;1.80;;
63093;SDS011;49183;51.380;0.098;2022-07-29T10:47:26;3.55;;;1.80;;
63093;SDS011;49183;51.380;0.098;2022-07-29T10:50:28;4.68;;;2.65;;
63093;SDS011;49183;51.380;0.098;2022-07-29T10:54:03;7.00;;;1.90;;
63093;SDS011;49183;51.380;0.098;2022-07-29T11:00:31;7.93;;;2.28;;
63093;SDS011;49183;51.380;0.098;2022-07-29T11:03:46;4.35;;;2.17;;
63093;SDS011;49183;51.380;0.098;2022-07-29T11:23:35;7.05;;;2.10;;
63093;SDS011;49183;51.380;0.098;2022-07-29T11:26:36;3.72;;;2.03;;
63093;SDS011;49183;51.380;0.098;2022-07-29T11:29:38;6.13;;;2.72;;
63093;SDS011;49183;51.380;0.098;2022-07-29T11:32:48;3.28;;;1.73;;
63093;SDS011;49183;51.380;0.098;2022-07-29T11:36:06;3.72;;;2.20;;
63093;SDS011;49183;51.380;0.098;2022-07-29T11:39:27;5.75;;;3.10;;
63093;SDS011;49183;51.380;0.098;2022-07-29T11:45:45;6.00;;;2.70;;
63093;SDS011;49183;51.380;0.098;2022-07-29T11:48:46;5.47;;;3.17;;
63093;SDS011;49183;51.380;0.098;2022-07-29T11:54:58;6.95;;;2.60;;
63093;SDS011;49183;51.380;0.098;2022-07-29T11:58:03;4.32;;;2.58;;
63093;SDS011;49183;51.380;0.098;2022-07-29T12:01:04;3.88;;;2.25;;
63093;SDS011;49183;51.380;0.098;2022-07-29T12:04:05;6.97;;;3.28;;
63093;SDS011;49183;51.380;0.098;2022-07-29T12:07:06;5.53;;;2.22;;
63093;SDS011;49183;51.380;0.098;2022-07-29T12:10:18;8.07;;;2.17;;
63093;SDS011;49183;51.380;0.098;2022-07-29T12:13:20;4.80;;;2.20;;
63093;SDS011;49183;51.380;0.098;2022-07-29T12:16:35;9.07;;;3.40;;
63093;SDS011;49183;51.380;0.098;2022-07-29T12:19:42;7.20;;;2.53;;
63093;SDS011;49183;51.380;0.098;2022-07-29T12:22:45;6.50;;;3.00;;
63093;SDS011;49183;51.380;0.098;2022-07-29T12:25:48;5.05;;;2.38;;
63093;SDS011;49183;51.380;0.098;2022-07-29T12:28:49;4.25;;;2.30;;
63093;SDS011;49183;51.380;0.098;2022-07-29T12:38:09;6.63;;;3.20;;
63093;SDS011;49183;51.380;0.098;2022-07-29T12:41:11;8.48;;;4.05;;
63093;SDS011;49183;51.380;0.098;2022-07-29T12:44:13;4.40;;;3.22;;
63093;SDS011;49183;51.380;0.098;2022-07-29T12:47:15;6.18;;;3.10;;
63093;SDS011;49183;51.380;0.098;2022-07-29T12:50:16;5.88;;;3.10;;
63093;SDS011;49183;51.380;0.098;2022-07-29T12:53:18;5.68;;;2.92;;
63093;SDS011;49183;51.380;0.098;2022-07-29T12:56:21;5.68;;;2.97;;
63093;SDS011;49183;51.380;0.098;2022-07-29T12:59:30;10.02;;;3.42;;
63093;SDS011;49183;51.380;0.098;2022-07-29T13:02:31;5.55;;;2.83;;
63093;SDS011;49183;51.380;0.098;2022-07-29T13:05:42;10.07;;;3.67;;
63093;SDS011;49183;51.380;0.098;2022-07-29T13:09:06;6.78;;;3.42;;
63093;SDS011;49183;51.380;0.098;2022-07-29T13:12:10;9.45;;;3.80;;
63093;SDS011;49183;51.380;0.098;2022-07-29T13:15:15;5.40;;;3.08;;
63093;SDS011;49183;51.380;0.098;2022-07-29T13:18:33;5.13;;;3.22;;
63093;SDS011;49183;51.380;0.098;2022-07-29T13:21:36;6.60;;;3.80;;
63093;SDS011;49183;51.380;0.098;2022-07-29T13:24:56;5.93;;;3.20;;
63093;SDS011;49183;51.380;0.098;2022-07-29T13:27:59;5.88;;;3.03;;
63093;SDS011;49183;51.380;0.098;2022-07-29T13:31:00;5.55;;;3.72;;
63093;SDS011;49183;51.380;0.098;2022-07-29T13:34:01;9.07;;;3.58;;
63093;SDS011;49183;51.380;0.098;2022-07-29T13:37:02;6.97;;;3.03;;
63093;SDS011;49183;51.380;0.098;2022-07-29T13:40:04;8.48;;;3.40;;
63093;SDS011;49183;51.380;0.098;2022-07-29T13:43:09;8.25;;;2.88;;
63093;SDS011;49183;51.380;0.098;2022-07-29T13:46:10;10.77;;;3.35;;
63093;SDS011;49183;51.380;0.098;2022-07-29T13:49:11;6.70;;;3.35;;
63093;SDS011;49183;51.380;0.098;2022-07-29T13:52:12;4.53;;;2.85;;
63093;SDS011;49183;51.380;0.098;2022-07-29T13:55:14;8.82;;;3.70;;
63093;SDS011;49183;51.380;0.098;2022-07-29T13:58:15;4.82;;;2.97;;
63093;SDS011;49183;51.380;0.098;2022-07-29T14:01:24;5.72;;;3.67;;
63093;SDS011;49183;51.380;0.098;2022-07-29T14:04:25;7.20;;;3.55;;
63093;SDS011;49183;51.380;0.098;2022-07-29T14:07:26;8.88;;;3.88;;
63093;SDS011;49183;51.380;0.098;2022-07-29T14:10:27;10.48;;;4.97;;
63093;SDS011;49183;51.380;0.098;2022-07-29T14:13:28;6.38;;;3.78;;
63093;SDS011;49183;51.380;0.098;2022-07-29T14:16:29;5.30;;;2.67;;
63093;SDS011;49183;51.380;0.098;2022-07-29T14:19:37;7.90;;;2.65;;
63093;SDS011;49183;51.380;0.098;2022-07-29T14:22:38;4.93;;;2.55;;
63093;SDS011;49183;51.380;0.098;2022-07-29T14:25:40;6.53;;;2.45;;
63093;SDS011;49183;51.380;0.098;2022-07-29T14:28:41;4.95;;;3.13;;
63093;SDS011;49183;51.380;0.098;2022-07-29T14:31:42;5.50;;;3.53;;
63093;SDS011;49183;51.380;0.098;2022-07-29T14:34:43;5.50;;;3.00;;
63093;SDS011;49183;51.380;0.098;2022-07-29T14:37:44;8.25;;;2.97;;
63093;SDS011;49183;51.380;0.098;2022-07-29T14:40:45;4.32;;;3.10;;
63093;SDS011;49183;51.380;0.098;2022-07-29T14:43:46;6.22;;;3.38;;
63093;SDS011;49183;51.380;0.098;2022-07-29T14:46:47;4.93;;;2.55;;
63093;SDS011;49183;51.380;0.098;2022-07-29T14:49:53;7.13;;;2.78;;
63093;SDS011;49183;51.380;0.098;2022-07-29T14:52:54;6.20;;;3.30;;
63093;SDS011;49183;51.380;0.098;2022-07-29T14:55:55;4.65;;;2.92;;
63093;SDS011;49183;51.380;0.098;2022-07-29T14:59:16;4.05;;;3.15;;
63093;SDS011;49183;51.380;0.098;2022-07-29T15:02:17;13.55;;;3.53;;
63093;SDS011;49183;51.380;0.098;2022-07-29T15:05:38;7.35;;;4.50;;
63093;SDS011;49183;51.380;0.098;2022-07-29T15:08:39;7.97;;;3.80;;
63093;SDS011;49183;51.380;0.098;2022-07-29T15:11:40;6.47;;;3.65;;
63093;SDS011;49183;51.380;0.098;2022-07-29T15:14:41;4.50;;;2.78;;
63093;SDS011;49183;51.380;0.098;2022-07-29T15:17:42;6.45;;;3.17;;
63093;SDS011;49183;51.380;0.098;2022-07-29T15:20:43;7.53;;;2.83;;
63093;SDS011;49183;51.380;0.098;2022-07-29T15:23:44;5.95;;;3.55;;
63093;SDS011;49183;51.380;0.098;2022-07-29T15:26:46;8.63;;;2.92;;
63093;SDS011;49183;51.380;0.098;2022-07-29T15:29:47;4.78;;;2.50;;
63093;SDS011;49183;51.380;0.098;2022-07-29T15:32:48;5.18;;;2.67;;
63093;SDS011;49183;51.380;0.098;2022-07-29T15:35:49;8.55;;;2.38;;
63093;SDS011;49183;51.380;0.098;2022-07-29T15:38:53;4.90;;;2.65;;
63093;SDS011;49183;51.380;0.098;2022-07-29T15:41:54;5.43;;;2.70;;
63093;SDS011;49183;51.380;0.098;2022-07-29T15:44:55;6.18;;;2.50;;
63093;SDS011;49183;51.380;0.098;2022-07-29T15:47:56;7.63;;;3.05;;
63093;SDS011;49183;51.380;0.098;2022-07-29T15:51:00;6.97;;;3.00;;
63093;SDS011;49183;51.380;0.098;2022-07-29T15:54:02;7.25;;;3.10;;
63093;SDS011;49183;51.380;0.098;2022-07-29T15:57:05;3.70;;;2.55;;
63093;SDS011;49183;51.380;0.098;2022-07-29T16:00:07;5.03;;;3.03;;
63093;SDS011;49183;51.380;0.098;2022-07-29T16:03:09;13.38;;;4.78;;
63093;SDS011;49183;51.380;0.098;2022-07-29T16:06:10;13.23;;;3.60;;
63093;SDS011;49183;51.380;0.098;2022-07-29T16:09:12;7.28;;;3.60;;
63093;SDS011;49183;51.380;0.098;2022-07-29T16:12:13;7.43;;;3.17;;
63093;SDS011;49183;51.380;0.098;2022-07-29T16:15:14;11.43;;;3.33;;
63093;SDS011;49183;51.380;0.098;2022-07-29T16:18:15;7.28;;;2.63;;
63093;SDS011;49183;51.380;0.098;2022-07-29T16:21:16;5.93;;;2.63;;
63093;SDS011;49183;51.380;0.098;2022-07-29T16:24:17;7.03;;;2.88;;
63093;SDS011;49183;51.380;0.098;2022-07-29T16:27:21;5.13;;;2.65;;
63093;SDS011;49183;51.380;0.098;2022-07-29T16:30:23;11.48;;;3.20;;
63093;SDS011;49183;51.380;0.098;2022-07-29T16:33:25;4.63;;;2.92;;
63093;SDS011;49183;51.380;0.098;2022-07-29T16:36:41;5.77;;;2.70;;
63093;SDS011;49183;51.380;0.098;2022-07-29T16:39:42;5.80;;;2.97;;
63093;SDS011;49183;51.380;0.098;2022-07-29T16:42:36;5.00;;;3.40;;
63093;SDS011;49183;51.380;0.098;2022-07-29T16:45:37;9.82;;;4.03;;
63093;SDS011;49183;51.380;0.098;2022-07-29T16:48:40;7.25;;;4.28;;
63093;SDS011;49183;51.380;0.098;2022-07-29T16:51:42;8.57;;;2.65;;
63093;SDS011;49183;51.380;0.098;2022-07-29T16:54:42;8.02;;;3.90;;
63093;SDS011;49183;51.380;0.098;2022-07-29T16:57:44;9.85;;;3.65;;
63093;SDS011;49183;51.380;0.098;2022-07-29T17:00:46;10.25;;;3.10;;
63093;SDS011;49183;51.380;0.098;2022-07-29T17:03:47;7.45;;;3.97;;
63093;SDS011;49183;51.380;0.098;2022-07-29T17:07:00;6.03;;;3.30;;
63093;SDS011;49183;51.380;0.098;2022-07-29T17:10:01;9.50;;;3.28;;
63093;SDS011;49183;51.380;0.098;2022-07-29T17:13:02;5.65;;;2.83;;
63093;SDS011;49183;51.380;0.098;2022-07-29T17:16:03;5.32;;;2.88;;
63093;SDS011;49183;51.380;0.098;2022-07-29T17:19:04;6.18;;;2.72;;
63093;SDS011;49183;51.380;0.098;2022-07-29T17:22:06;4.28;;;2.97;;
63093;SDS011;49183;51.380;0.098;2022-07-29T17:25:08;7.05;;;3.08;;
63093;SDS011;49183;51.380;0.098;2022-07-29T17:28:09;6.47;;;3.38;;
63093;SDS011;49183;51.380;0.098;2022-07-29T17:31:10;4.70;;;3.22;;
63093;SDS011;49183;51.380;0.098;2022-07-29T17:34:11;7.88;;;2.55;;
63093;SDS011;49183;51.380;0.098;2022-07-29T17:37:12;5.18;;;2.85;;
63093;SDS011;49183;51.380;0.098;2022-07-29T17:40:13;6.55;;;2.72;;
63093;SDS011;49183;51.380;0.098;2022-07-29T17:43:14;6.25;;;2.97;;
63093;SDS011;49183;51.380;0.098;2022-07-29T17:46:16;10.23;;;3.70;;
63093;SDS011;49183;51.380;0.098;2022-07-29T17:49:19;7.10;;;2.72;;
63093;SDS011;49183;51.380;0.098;2022-07-29T17:52:22;6.63;;;3.35;;
63093;SDS011;49183;51.380;0.098;2022-07-29T17:55:23;7.63;;;2.85;;
63093;SDS011;49183;51.380;0.098;2022-07-29T17:58:24;4.32;;;2.70;;
63093;SDS011;49183;51.380;0.098;2022-07-29T18:01:26;4.45;;;2.65;;
63093;SDS011;49183;51.380;0.098;2022-07-29T18:04:27;8.40;;;3.50;;
63093;SDS011;49183;51.380;0.098;2022-07-29T18:07:28;4.25;;;2.80;;
63093;SDS011;49183;51.380;0.098;2022-07-29T18:10:29;7.32;;;2.90;;
63093;SDS011;49183;51.380;0.098;2022-07-29T18:13:30;6.28;;;3.47;;
63093;SDS011;49183;51.380;0.098;2022-07-29T18:16:31;7.10;;;2.90;;
63093;SDS011;49183;51.380;0.098;2022-07-29T18:19:32;6.85;;;2.70;;
63093;SDS011;49183;51.380;0.098;2022-07-29T18:22:33;6.57;;;2.60;;
63093;SDS011;49183;51.380;0.098;2022-07-29T18:25:35;5.13;;;2.58;;
63093;SDS011;49183;51.380;0.098;2022-07-29T18:28:36;6.28;;;2.67;;
63093;SDS011;49183;51.380;0.098;2022-07-29T18:31:37;6.75;;;2.70;;
63093;SDS011;49183;51.380;0.098;2022-07-29T18:34:38;8.65;;;2.47;;
63093;SDS011;49183;51.380;0.098;2022-07-29T18:37:39;3.92;;;2.20;;
63093;SDS011;49183;51.380;0.098;2022-07-29T18:43:48;6.93;;;2.90;;
63093;SDS011;49183;51.380;0.098;2022-07-29T18:46:50;5.85;;;2.88;;
63093;SDS011;49183;51.380;0.098;2022-07-29T18:49:51;4.80;;;2.47;;
63093;SDS011;49183;51.380;0.098;2022-07-29T18:52:52;7.30;;;2.97;;
63093;SDS011;49183;51.380;0.098;2022-07-29T18:55:55;5.07;;;1.98;;
63093;SDS011;49183;51.380;0.098;2022-07-29T18:58:56;4.18;;;2.42;;
63093;SDS011;49183;51.380;0.098;2022-07-29T19:01:57;4.68;;;2.50;;
63093;SDS011;49183;51.380;0.098;2022-07-29T19:04:58;6.13;;;2.35;;
63093;SDS011;49183;51.380;0.098;2022-07-29T19:07:59;7.80;;;2.15;;
63093;SDS011;49183;51.380;0.098;2022-07-29T19:11:00;7.97;;;1.90;;
63093;SDS011;49183;51.380;0.098;2022-07-29T19:14:02;5.72;;;2.22;;
63093;SDS011;49183;51.380;0.098;2022-07-29T19:17:03;4.82;;;2.30;;
63093;SDS011;49183;51.380;0.098;2022-07-29T19:20:05;7.57;;;2.53;;
63093;SDS011;49183;51.380;0.098;2022-07-29T19:23:09;5.68;;;2.65;;